sensor_id;sensor_type;location;lat;lon;timestamp;temperature;humidity
10530;DHT22;5313;48.834;9.228;2023-05-09T00:01:19;14.50;99.90
10530;DHT22;5313;48.834;9.228;2023-05-09T00:03:45;14.50;99.90
10530;DHT22;5313;48.834;9.228;2023-05-09T00:06:11;14.50;99.90
10530;DHT22;5313;48.834;9.228;2023-05-09T00:08:37;14.40;99.90
10530;DHT22;5313;48.834;9.228;2023-05-09T00:11:03;14.30;99.90
10530;DHT22;5313;48.834;9.228;2023-05-09T00:13:29;14.20;99.90
10530;DHT22;5313;48.834;9.228;2023-05-09T00:15:54;14.00;99.90
10530;DHT22;5313;48.834;9.228;2023-05-09T00:18:22;13.90;99.90
10530;DHT22;5313;48.834;9.228;2023-05-09T00:20:48;13.90;99.90
10530;DHT22;5313;48.834;9.228;2023-05-09T00:23:14;14.00;99.90
10530;DHT22;5313;48.834;9.228;2023-05-09T00:25:41;14.00;99.90
10530;DHT22;5313;48.834;9.228;2023-05-09T00:28:07;14.00;99.90
10530;DHT22;5313;48.834;9.228;2023-05-09T00:30:33;14.00;99.90
10530;DHT22;5313;48.834;9.228;2023-05-09T00:32:58;14.00;99.90
10530;DHT22;5313;48.834;9.228;2023-05-09T00:35:24;14.00;99.90
10530;DHT22;5313;48.834;9.228;2023-05-09T00:37:49;13.90;99.90
10530;DHT22;5313;48.834;9.228;2023-05-09T00:40:15;13.70;99.90
10530;DHT22;5313;48.834;9.228;2023-05-09T00:42:41;13.70;99.90
10530;DHT22;5313;48.834;9.228;2023-05-09T00:45:07;13.70;99.90
10530;DHT22;5313;48.834;9.228;2023-05-09T00:47:33;13.70;99.90
10530;DHT22;5313;48.834;9.228;2023-05-09T00:49:59;13.60;99.90
10530;DHT22;5313;48.834;9.228;2023-05-09T00:52:25;13.50;99.90
10530;DHT22;5313;48.834;9.228;2023-05-09T00:54:52;13.40;99.90
10530;DHT22;5313;48.834;9.228;2023-05-09T00:57:18;13.40;99.90
10530;DHT22;5313;48.834;9.228;2023-05-09T00:59:43;13.50;99.90
10530;DHT22;5313;48.834;9.228;2023-05-09T01:02:09;13.60;99.90
10530;DHT22;5313;48.834;9.228;2023-05-09T01:04:35;13.70;99.90
10530;DHT22;5313;48.834;9.228;2023-05-09T01:10:34;13.60;99.90
10530;DHT22;5313;48.834;9.228;2023-05-09T01:13:19;13.50;99.90
10530;DHT22;5313;48.834;9.228;2023-05-09T01:16:03;13.40;99.90
10530;DHT22;5313;48.834;9.228;2023-05-09T01:18:46;13.50;99.90
10530;DHT22;5313;48.834;9.228;2023-05-09T01:21:19;13.50;99.90
10530;DHT22;5313;48.834;9.228;2023-05-09T01:29:37;13.30;99.90
10530;DHT22;5313;48.834;9.228;2023-05-09T01:32:10;13.30;99.90
10530;DHT22;5313;48.834;9.228;2023-05-09T01:34:40;13.40;99.90
10530;DHT22;5313;48.834;9.228;2023-05-09T01:37:07;13.40;99.90
10530;DHT22;5313;48.834;9.228;2023-05-09T01:39:37;13.50;99.90
10530;DHT22;5313;48.834;9.228;2023-05-09T01:42:04;13.50;99.90
10530;DHT22;5313;48.834;9.228;2023-05-09T01:44:37;13.60;99.90
10530;DHT22;5313;48.834;9.228;2023-05-09T01:47:04;13.60;99.90
10530;DHT22;5313;48.834;9.228;2023-05-09T01:49:33;13.60;99.90
10530;DHT22;5313;48.834;9.228;2023-05-09T01:52:04;13.70;99.90
10530;DHT22;5313;48.834;9.228;2023-05-09T01:54:32;13.60;99.90
10530;DHT22;5313;48.834;9.228;2023-05-09T01:56:58;13.40;99.90
10530;DHT22;5313;48.834;9.228;2023-05-09T01:59:26;13.40;99.90
10530;DHT22;5313;48.834;9.228;2023-05-09T02:01:52;13.30;99.90
10530;DHT22;5313;48.834;9.228;2023-05-09T02:04:20;13.30;99.90
10530;DHT22;5313;48.834;9.228;2023-05-09T02:06:47;13.30;99.90
10530;DHT22;5313;48.834;9.228;2023-05-09T02:09:17;13.30;99.90
10530;DHT22;5313;48.834;9.228;2023-05-09T02:11:43;13.30;99.90
10530;DHT22;5313;48.834;9.228;2023-05-09T02:14:09;13.30;99.90
10530;DHT22;5313;48.834;9.228;2023-05-09T02:16:34;13.30;99.90
10530;DHT22;5313;48.834;9.228;2023-05-09T02:19:00;13.40;99.90
10530;DHT22;5313;48.834;9.228;2023-05-09T02:21:26;13.30;99.90
10530;DHT22;5313;48.834;9.228;2023-05-09T02:23:51;13.40;99.90
10530;DHT22;5313;48.834;9.228;2023-05-09T02:26:18;13.30;99.90
10530;DHT22;5313;48.834;9.228;2023-05-09T02:28:44;13.30;99.90
10530;DHT22;5313;48.834;9.228;2023-05-09T02:31:12;13.40;99.90
10530;DHT22;5313;48.834;9.228;2023-05-09T02:33:38;13.50;99.90
10530;DHT22;5313;48.834;9.228;2023-05-09T02:36:06;13.40;99.90
10530;DHT22;5313;48.834;9.228;2023-05-09T02:38:33;13.30;99.90
10530;DHT22;5313;48.834;9.228;2023-05-09T02:40:59;13.30;99.90
10530;DHT22;5313;48.834;9.228;2023-05-09T02:43:24;13.30;99.90
10530;DHT22;5313;48.834;9.228;2023-05-09T02:45:50;13.30;99.90
10530;DHT22;5313;48.834;9.228;2023-05-09T02:48:15;13.30;99.90
10530;DHT22;5313;48.834;9.228;2023-05-09T02:50:41;13.30;99.90
10530;DHT22;5313;48.834;9.228;2023-05-09T02:53:10;13.40;99.90
10530;DHT22;5313;48.834;9.228;2023-05-09T02:55:35;13.40;99.90
10530;DHT22;5313;48.834;9.228;2023-05-09T02:58:01;13.40;99.90
10530;DHT22;5313;48.834;9.228;2023-05-09T03:00:27;13.50;99.90
10530;DHT22;5313;48.834;9.228;2023-05-09T03:02:52;13.50;99.90
10530;DHT22;5313;48.834;9.228;2023-05-09T03:05:18;13.50;99.90
10530;DHT22;5313;48.834;9.228;2023-05-09T03:07:44;13.50;99.90
10530;DHT22;5313;48.834;9.228;2023-05-09T03:10:10;13.50;99.90
10530;DHT22;5313;48.834;9.228;2023-05-09T03:12:37;13.50;99.90
10530;DHT22;5313;48.834;9.228;2023-05-09T03:15:06;13.50;99.90
10530;DHT22;5313;48.834;9.228;2023-05-09T03:17:32;13.50;99.90
10530;DHT22;5313;48.834;9.228;2023-05-09T03:19:57;13.50;99.90
10530;DHT22;5313;48.834;9.228;2023-05-09T03:22:23;13.60;99.90
10530;DHT22;5313;48.834;9.228;2023-05-09T03:24:48;13.50;99.90
10530;DHT22;5313;48.834;9.228;2023-05-09T03:27:14;13.40;99.90
10530;DHT22;5313;48.834;9.228;2023-05-09T03:29:39;13.40;99.90
10530;DHT22;5313;48.834;9.228;2023-05-09T03:32:05;13.30;99.90
10530;DHT22;5313;48.834;9.228;2023-05-09T03:34:30;13.30;99.90
10530;DHT22;5313;48.834;9.228;2023-05-09T03:36:56;13.30;99.90
10530;DHT22;5313;48.834;9.228;2023-05-09T03:39:21;13.30;99.90
10530;DHT22;5313;48.834;9.228;2023-05-09T03:41:47;13.30;99.90
10530;DHT22;5313;48.834;9.228;2023-05-09T03:44:13;13.30;99.90
10530;DHT22;5313;48.834;9.228;2023-05-09T03:46:39;13.30;99.90
10530;DHT22;5313;48.834;9.228;2023-05-09T03:49:04;13.30;99.90
10530;DHT22;5313;48.834;9.228;2023-05-09T03:51:30;13.20;99.90
10530;DHT22;5313;48.834;9.228;2023-05-09T03:53:56;13.30;99.90
10530;DHT22;5313;48.834;9.228;2023-05-09T03:56:22;13.30;99.90
10530;DHT22;5313;48.834;9.228;2023-05-09T03:58:47;13.30;99.90
10530;DHT22;5313;48.834;9.228;2023-05-09T04:01:13;13.30;99.90
10530;DHT22;5313;48.834;9.228;2023-05-09T04:03:39;13.40;99.90
10530;DHT22;5313;48.834;9.228;2023-05-09T04:06:05;13.40;99.90
10530;DHT22;5313;48.834;9.228;2023-05-09T04:08:31;13.40;99.90
10530;DHT22;5313;48.834;9.228;2023-05-09T04:10:57;13.40;99.90
10530;DHT22;5313;48.834;9.228;2023-05-09T04:13:22;13.40;99.90
10530;DHT22;5313;48.834;9.228;2023-05-09T04:15:48;13.30;99.90
10530;DHT22;5313;48.834;9.228;2023-05-09T04:18:13;13.30;99.90
10530;DHT22;5313;48.834;9.228;2023-05-09T04:20:39;13.30;99.90
10530;DHT22;5313;48.834;9.228;2023-05-09T04:23:05;13.30;99.90
10530;DHT22;5313;48.834;9.228;2023-05-09T04:25:30;13.30;99.90
10530;DHT22;5313;48.834;9.228;2023-05-09T04:27:56;13.30;99.90
10530;DHT22;5313;48.834;9.228;2023-05-09T04:30:22;13.30;99.90
10530;DHT22;5313;48.834;9.228;2023-05-09T04:32:48;13.30;99.90
10530;DHT22;5313;48.834;9.228;2023-05-09T04:35:14;13.30;99.90
10530;DHT22;5313;48.834;9.228;2023-05-09T04:37:39;13.40;99.90
10530;DHT22;5313;48.834;9.228;2023-05-09T04:40:06;13.30;99.90
10530;DHT22;5313;48.834;9.228;2023-05-09T04:42:33;13.20;99.90
10530;DHT22;5313;48.834;9.228;2023-05-09T04:45:00;13.10;99.90
10530;DHT22;5313;48.834;9.228;2023-05-09T04:47:25;13.10;99.90
10530;DHT22;5313;48.834;9.228;2023-05-09T04:49:51;13.20;99.90
10530;DHT22;5313;48.834;9.228;2023-05-09T04:52:17;13.20;99.90
10530;DHT22;5313;48.834;9.228;2023-05-09T04:54:42;13.20;99.90
10530;DHT22;5313;48.834;9.228;2023-05-09T04:57:08;13.30;99.90
10530;DHT22;5313;48.834;9.228;2023-05-09T04:59:34;13.30;99.90
10530;DHT22;5313;48.834;9.228;2023-05-09T05:02:00;13.40;99.90
10530;DHT22;5313;48.834;9.228;2023-05-09T05:04:25;13.50;99.90
10530;DHT22;5313;48.834;9.228;2023-05-09T05:06:51;13.50;99.90
10530;DHT22;5313;48.834;9.228;2023-05-09T05:09:16;13.60;99.90
10530;DHT22;5313;48.834;9.228;2023-05-09T05:11:42;13.60;99.90
10530;DHT22;5313;48.834;9.228;2023-05-09T05:14:07;13.70;99.90
10530;DHT22;5313;48.834;9.228;2023-05-09T05:16:33;13.80;99.90
10530;DHT22;5313;48.834;9.228;2023-05-09T05:18:58;13.80;99.90
10530;DHT22;5313;48.834;9.228;2023-05-09T05:21:24;13.80;99.90
10530;DHT22;5313;48.834;9.228;2023-05-09T05:23:49;13.80;99.90
10530;DHT22;5313;48.834;9.228;2023-05-09T05:26:15;13.80;99.90
10530;DHT22;5313;48.834;9.228;2023-05-09T05:28:40;13.90;99.90
10530;DHT22;5313;48.834;9.228;2023-05-09T05:31:06;14.00;99.90
10530;DHT22;5313;48.834;9.228;2023-05-09T05:33:31;14.00;99.90
10530;DHT22;5313;48.834;9.228;2023-05-09T05:35:57;14.10;99.90
10530;DHT22;5313;48.834;9.228;2023-05-09T05:38:22;14.20;99.90
10530;DHT22;5313;48.834;9.228;2023-05-09T05:40:48;14.30;99.90
10530;DHT22;5313;48.834;9.228;2023-05-09T05:43:13;14.30;99.90
10530;DHT22;5313;48.834;9.228;2023-05-09T05:45:39;14.40;99.90
10530;DHT22;5313;48.834;9.228;2023-05-09T05:48:04;14.20;99.90
10530;DHT22;5313;48.834;9.228;2023-05-09T05:50:30;14.20;99.90
10530;DHT22;5313;48.834;9.228;2023-05-09T05:52:55;14.20;99.90
10530;DHT22;5313;48.834;9.228;2023-05-09T05:55:21;15.90;99.90
10530;DHT22;5313;48.834;9.228;2023-05-09T05:57:46;14.20;99.90
10530;DHT22;5313;48.834;9.228;2023-05-09T06:00:13;14.20;99.90
10530;DHT22;5313;48.834;9.228;2023-05-09T06:02:42;14.30;99.90
10530;DHT22;5313;48.834;9.228;2023-05-09T06:05:14;14.40;99.90
10530;DHT22;5313;48.834;9.228;2023-05-09T06:07:39;14.40;99.90
10530;DHT22;5313;48.834;9.228;2023-05-09T06:10:11;14.50;99.90
10530;DHT22;5313;48.834;9.228;2023-05-09T06:12:36;14.50;99.90
10530;DHT22;5313;48.834;9.228;2023-05-09T06:15:02;14.60;99.90
10530;DHT22;5313;48.834;9.228;2023-05-09T06:17:30;14.80;99.90
10530;DHT22;5313;48.834;9.228;2023-05-09T06:19:55;14.90;99.90
10530;DHT22;5313;48.834;9.228;2023-05-09T06:22:21;15.20;99.90
10530;DHT22;5313;48.834;9.228;2023-05-09T06:24:46;15.40;99.90
10530;DHT22;5313;48.834;9.228;2023-05-09T06:27:12;15.60;99.90
10530;DHT22;5313;48.834;9.228;2023-05-09T06:29:37;15.70;99.90
10530;DHT22;5313;48.834;9.228;2023-05-09T06:32:03;15.80;99.90
10530;DHT22;5313;48.834;9.228;2023-05-09T06:34:28;15.90;99.90
10530;DHT22;5313;48.834;9.228;2023-05-09T06:36:54;16.10;99.90
10530;DHT22;5313;48.834;9.228;2023-05-09T06:39:19;16.10;99.90
10530;DHT22;5313;48.834;9.228;2023-05-09T06:41:45;15.90;99.90
10530;DHT22;5313;48.834;9.228;2023-05-09T06:44:10;16.10;99.90
10530;DHT22;5313;48.834;9.228;2023-05-09T06:46:36;16.00;99.90
10530;DHT22;5313;48.834;9.228;2023-05-09T06:49:01;16.00;99.90
10530;DHT22;5313;48.834;9.228;2023-05-09T06:51:27;15.90;99.90
10530;DHT22;5313;48.834;9.228;2023-05-09T06:53:53;15.80;99.90
10530;DHT22;5313;48.834;9.228;2023-05-09T06:56:18;15.90;99.90
10530;DHT22;5313;48.834;9.228;2023-05-09T06:58:45;15.90;99.90
10530;DHT22;5313;48.834;9.228;2023-05-09T07:01:11;15.90;99.90
10530;DHT22;5313;48.834;9.228;2023-05-09T07:03:36;15.90;99.90
10530;DHT22;5313;48.834;9.228;2023-05-09T07:06:02;16.10;99.90
10530;DHT22;5313;48.834;9.228;2023-05-09T07:08:27;16.20;99.90
10530;DHT22;5313;48.834;9.228;2023-05-09T07:10:53;16.30;99.90
10530;DHT22;5313;48.834;9.228;2023-05-09T07:13:18;16.30;99.90
10530;DHT22;5313;48.834;9.228;2023-05-09T07:15:44;16.50;99.90
10530;DHT22;5313;48.834;9.228;2023-05-09T07:18:09;16.70;99.90
10530;DHT22;5313;48.834;9.228;2023-05-09T07:20:35;17.10;99.90
10530;DHT22;5313;48.834;9.228;2023-05-09T07:23:02;16.90;99.90
10530;DHT22;5313;48.834;9.228;2023-05-09T07:25:28;16.90;99.90
10530;DHT22;5313;48.834;9.228;2023-05-09T07:27:54;17.10;99.90
10530;DHT22;5313;48.834;9.228;2023-05-09T07:30:19;17.00;99.90
10530;DHT22;5313;48.834;9.228;2023-05-09T07:32:45;17.00;99.90
10530;DHT22;5313;48.834;9.228;2023-05-09T07:35:10;17.00;99.90
10530;DHT22;5313;48.834;9.228;2023-05-09T07:37:36;16.80;99.90
10530;DHT22;5313;48.834;9.228;2023-05-09T07:40:02;16.90;99.90
10530;DHT22;5313;48.834;9.228;2023-05-09T07:42:29;16.90;99.90
10530;DHT22;5313;48.834;9.228;2023-05-09T07:44:57;17.00;99.90
10530;DHT22;5313;48.834;9.228;2023-05-09T07:47:23;17.30;99.90
10530;DHT22;5313;48.834;9.228;2023-05-09T07:49:49;17.30;99.90
10530;DHT22;5313;48.834;9.228;2023-05-09T07:52:15;17.30;99.90
10530;DHT22;5313;48.834;9.228;2023-05-09T07:54:42;17.50;99.90
10530;DHT22;5313;48.834;9.228;2023-05-09T07:57:08;17.60;99.90
10530;DHT22;5313;48.834;9.228;2023-05-09T07:59:33;17.50;99.90
10530;DHT22;5313;48.834;9.228;2023-05-09T08:01:59;17.80;99.90
10530;DHT22;5313;48.834;9.228;2023-05-09T08:04:25;17.90;99.90
10530;DHT22;5313;48.834;9.228;2023-05-09T08:06:50;18.00;99.90
10530;DHT22;5313;48.834;9.228;2023-05-09T08:09:16;17.90;99.90
10530;DHT22;5313;48.834;9.228;2023-05-09T08:11:43;18.20;99.90
10530;DHT22;5313;48.834;9.228;2023-05-09T08:14:08;18.30;99.90
10530;DHT22;5313;48.834;9.228;2023-05-09T08:16:34;18.30;99.90
10530;DHT22;5313;48.834;9.228;2023-05-09T08:18:59;18.50;99.90
10530;DHT22;5313;48.834;9.228;2023-05-09T08:21:25;18.70;99.90
10530;DHT22;5313;48.834;9.228;2023-05-09T08:23:50;18.50;99.90
10530;DHT22;5313;48.834;9.228;2023-05-09T08:26:17;18.70;99.90
10530;DHT22;5313;48.834;9.228;2023-05-09T08:28:42;18.60;99.90
10530;DHT22;5313;48.834;9.228;2023-05-09T08:31:08;18.50;99.90
10530;DHT22;5313;48.834;9.228;2023-05-09T08:33:33;18.50;99.90
10530;DHT22;5313;48.834;9.228;2023-05-09T08:35:59;18.40;99.90
10530;DHT22;5313;48.834;9.228;2023-05-09T08:38:24;18.20;99.90
10530;DHT22;5313;48.834;9.228;2023-05-09T08:40:50;18.30;99.90
10530;DHT22;5313;48.834;9.228;2023-05-09T08:43:16;18.60;99.90
10530;DHT22;5313;48.834;9.228;2023-05-09T08:46:06;18.70;99.90
10530;DHT22;5313;48.834;9.228;2023-05-09T08:48:34;19.00;99.90
10530;DHT22;5313;48.834;9.228;2023-05-09T08:51:03;19.20;99.90
10530;DHT22;5313;48.834;9.228;2023-05-09T08:53:30;19.40;99.90
10530;DHT22;5313;48.834;9.228;2023-05-09T08:55:57;19.30;99.90
10530;DHT22;5313;48.834;9.228;2023-05-09T08:58:23;19.40;99.90
10530;DHT22;5313;48.834;9.228;2023-05-09T09:00:49;19.30;99.90
10530;DHT22;5313;48.834;9.228;2023-05-09T09:03:16;19.40;99.90
10530;DHT22;5313;48.834;9.228;2023-05-09T09:05:42;19.10;99.90
10530;DHT22;5313;48.834;9.228;2023-05-09T09:08:09;19.40;99.90
10530;DHT22;5313;48.834;9.228;2023-05-09T09:10:38;19.50;99.90
10530;DHT22;5313;48.834;9.228;2023-05-09T09:13:05;19.40;99.90
10530;DHT22;5313;48.834;9.228;2023-05-09T09:15:34;19.50;99.90
10530;DHT22;5313;48.834;9.228;2023-05-09T09:18:08;19.60;99.90
10530;DHT22;5313;48.834;9.228;2023-05-09T09:20:57;19.60;99.90
10530;DHT22;5313;48.834;9.228;2023-05-09T09:23:24;19.70;99.90
10530;DHT22;5313;48.834;9.228;2023-05-09T09:26:00;19.40;99.90
10530;DHT22;5313;48.834;9.228;2023-05-09T09:28:26;19.60;99.90
10530;DHT22;5313;48.834;9.228;2023-05-09T09:30:52;19.80;99.90
10530;DHT22;5313;48.834;9.228;2023-05-09T09:33:22;19.80;99.90
10530;DHT22;5313;48.834;9.228;2023-05-09T09:35:49;19.60;99.90
10530;DHT22;5313;48.834;9.228;2023-05-09T09:38:17;19.60;99.90
10530;DHT22;5313;48.834;9.228;2023-05-09T09:40:53;19.70;99.90
10530;DHT22;5313;48.834;9.228;2023-05-09T09:43:25;19.70;99.90
10530;DHT22;5313;48.834;9.228;2023-05-09T09:45:52;19.90;99.90
10530;DHT22;5313;48.834;9.228;2023-05-09T09:48:25;20.00;99.90
10530;DHT22;5313;48.834;9.228;2023-05-09T09:50:54;19.90;99.90
10530;DHT22;5313;48.834;9.228;2023-05-09T09:53:21;20.00;99.90
10530;DHT22;5313;48.834;9.228;2023-05-09T09:55:49;20.40;99.90
10530;DHT22;5313;48.834;9.228;2023-05-09T09:58:16;20.50;99.90
10530;DHT22;5313;48.834;9.228;2023-05-09T10:00:42;20.90;99.90
10530;DHT22;5313;48.834;9.228;2023-05-09T10:03:14;21.10;99.90
10530;DHT22;5313;48.834;9.228;2023-05-09T10:05:40;21.20;99.90
10530;DHT22;5313;48.834;9.228;2023-05-09T10:08:06;21.40;99.90
10530;DHT22;5313;48.834;9.228;2023-05-09T10:10:34;20.80;99.90
10530;DHT22;5313;48.834;9.228;2023-05-09T10:13:03;20.70;99.90
10530;DHT22;5313;48.834;9.228;2023-05-09T10:15:30;21.00;99.90
10530;DHT22;5313;48.834;9.228;2023-05-09T10:17:58;21.10;99.90
10530;DHT22;5313;48.834;9.228;2023-05-09T10:20:26;21.10;99.90
10530;DHT22;5313;48.834;9.228;2023-05-09T10:22:55;21.20;99.90
10530;DHT22;5313;48.834;9.228;2023-05-09T10:25:26;21.50;99.90
10530;DHT22;5313;48.834;9.228;2023-05-09T10:27:54;21.70;99.90
10530;DHT22;5313;48.834;9.228;2023-05-09T10:30:29;21.60;99.90
10530;DHT22;5313;48.834;9.228;2023-05-09T10:33:08;21.20;99.90
10530;DHT22;5313;48.834;9.228;2023-05-09T10:35:36;21.70;99.90
10530;DHT22;5313;48.834;9.228;2023-05-09T10:38:04;21.70;99.90
10530;DHT22;5313;48.834;9.228;2023-05-09T10:40:31;21.70;99.90
10530;DHT22;5313;48.834;9.228;2023-05-09T10:42:58;21.90;99.90
10530;DHT22;5313;48.834;9.228;2023-05-09T10:45:23;21.70;99.90
10530;DHT22;5313;48.834;9.228;2023-05-09T10:47:50;21.70;99.90
10530;DHT22;5313;48.834;9.228;2023-05-09T10:50:17;21.90;99.90
10530;DHT22;5313;48.834;9.228;2023-05-09T10:55:56;22.80;99.90
10530;DHT22;5313;48.834;9.228;2023-05-09T10:58:29;23.00;99.90
10530;DHT22;5313;48.834;9.228;2023-05-09T11:00:58;23.20;99.90
10530;DHT22;5313;48.834;9.228;2023-05-09T11:03:25;23.00;99.90
10530;DHT22;5313;48.834;9.228;2023-05-09T11:05:53;22.80;99.90
10530;DHT22;5313;48.834;9.228;2023-05-09T11:08:22;22.60;99.90
10530;DHT22;5313;48.834;9.228;2023-05-09T11:10:48;22.70;99.90
10530;DHT22;5313;48.834;9.228;2023-05-09T11:13:18;22.90;99.90
10530;DHT22;5313;48.834;9.228;2023-05-09T11:16:03;22.70;99.90
10530;DHT22;5313;48.834;9.228;2023-05-09T11:18:29;22.70;99.90
10530;DHT22;5313;48.834;9.228;2023-05-09T11:20:56;23.10;99.90
10530;DHT22;5313;48.834;9.228;2023-05-09T11:23:25;22.90;99.90
10530;DHT22;5313;48.834;9.228;2023-05-09T11:25:51;23.10;99.90
10530;DHT22;5313;48.834;9.228;2023-05-09T11:28:28;22.40;99.90
10530;DHT22;5313;48.834;9.228;2023-05-09T11:33:35;22.80;99.90
10530;DHT22;5313;48.834;9.228;2023-05-09T11:39:05;23.20;99.90
10530;DHT22;5313;48.834;9.228;2023-05-09T11:41:42;23.70;99.90
10530;DHT22;5313;48.834;9.228;2023-05-09T11:44:16;23.90;99.90
10530;DHT22;5313;48.834;9.228;2023-05-09T11:46:43;24.10;99.90
10530;DHT22;5313;48.834;9.228;2023-05-09T11:49:09;24.00;99.90
10530;DHT22;5313;48.834;9.228;2023-05-09T11:51:37;24.00;99.90
10530;DHT22;5313;48.834;9.228;2023-05-09T11:54:04;24.20;99.90
10530;DHT22;5313;48.834;9.228;2023-05-09T11:56:32;24.30;99.90
10530;DHT22;5313;48.834;9.228;2023-05-09T11:58:58;24.00;99.90
10530;DHT22;5313;48.834;9.228;2023-05-09T12:01:23;23.60;99.90
10530;DHT22;5313;48.834;9.228;2023-05-09T12:03:50;23.10;99.90
10530;DHT22;5313;48.834;9.228;2023-05-09T12:06:17;22.50;99.90
10530;DHT22;5313;48.834;9.228;2023-05-09T12:08:44;22.40;99.90
10530;DHT22;5313;48.834;9.228;2023-05-09T12:11:10;22.50;99.90
10530;DHT22;5313;48.834;9.228;2023-05-09T12:13:47;22.60;99.90
10530;DHT22;5313;48.834;9.228;2023-05-09T12:16:17;22.70;99.90
10530;DHT22;5313;48.834;9.228;2023-05-09T12:18:50;22.80;99.90
10530;DHT22;5313;48.834;9.228;2023-05-09T12:21:16;23.00;99.90
10530;DHT22;5313;48.834;9.228;2023-05-09T12:23:43;23.40;99.90
10530;DHT22;5313;48.834;9.228;2023-05-09T12:26:09;23.60;99.90
10530;DHT22;5313;48.834;9.228;2023-05-09T12:28:35;23.40;99.90
10530;DHT22;5313;48.834;9.228;2023-05-09T12:31:01;23.30;99.90
10530;DHT22;5313;48.834;9.228;2023-05-09T12:33:27;23.30;99.90
10530;DHT22;5313;48.834;9.228;2023-05-09T12:36:10;23.20;99.90
10530;DHT22;5313;48.834;9.228;2023-05-09T12:38:36;23.10;99.90
10530;DHT22;5313;48.834;9.228;2023-05-09T12:41:06;22.80;99.90
10530;DHT22;5313;48.834;9.228;2023-05-09T12:43:33;22.60;99.90
10530;DHT22;5313;48.834;9.228;2023-05-09T12:46:00;22.50;99.90
10530;DHT22;5313;48.834;9.228;2023-05-09T12:48:27;22.80;99.90
10530;DHT22;5313;48.834;9.228;2023-05-09T12:50:52;22.60;99.90
10530;DHT22;5313;48.834;9.228;2023-05-09T12:53:26;22.90;99.90
10530;DHT22;5313;48.834;9.228;2023-05-09T12:56:02;22.90;99.90
10530;DHT22;5313;48.834;9.228;2023-05-09T12:58:32;22.90;99.90
10530;DHT22;5313;48.834;9.228;2023-05-09T13:00:58;23.40;99.90
10530;DHT22;5313;48.834;9.228;2023-05-09T13:03:26;23.70;99.90
10530;DHT22;5313;48.834;9.228;2023-05-09T13:05:59;23.60;99.90
10530;DHT22;5313;48.834;9.228;2023-05-09T13:08:25;23.00;99.90
10530;DHT22;5313;48.834;9.228;2023-05-09T13:10:51;22.90;99.90
10530;DHT22;5313;48.834;9.228;2023-05-09T13:13:18;23.30;99.90
10530;DHT22;5313;48.834;9.228;2023-05-09T13:15:44;23.60;99.90
10530;DHT22;5313;48.834;9.228;2023-05-09T13:18:10;23.50;99.90
10530;DHT22;5313;48.834;9.228;2023-05-09T13:20:36;23.40;99.90
10530;DHT22;5313;48.834;9.228;2023-05-09T13:23:01;23.80;99.90
10530;DHT22;5313;48.834;9.228;2023-05-09T13:25:27;23.10;99.90
10530;DHT22;5313;48.834;9.228;2023-05-09T13:27:53;23.50;99.90
10530;DHT22;5313;48.834;9.228;2023-05-09T13:30:18;23.70;99.90
10530;DHT22;5313;48.834;9.228;2023-05-09T13:32:44;24.10;99.90
10530;DHT22;5313;48.834;9.228;2023-05-09T13:35:11;24.10;99.90
10530;DHT22;5313;48.834;9.228;2023-05-09T13:37:37;23.90;99.90
10530;DHT22;5313;48.834;9.228;2023-05-09T13:40:03;23.50;99.90
10530;DHT22;5313;48.834;9.228;2023-05-09T13:42:29;23.00;99.90
10530;DHT22;5313;48.834;9.228;2023-05-09T13:44:55;22.90;99.90
10530;DHT22;5313;48.834;9.228;2023-05-09T13:47:20;22.60;99.90
10530;DHT22;5313;48.834;9.228;2023-05-09T13:49:46;22.40;99.90
10530;DHT22;5313;48.834;9.228;2023-05-09T13:52:11;22.30;99.90
10530;DHT22;5313;48.834;9.228;2023-05-09T13:54:39;22.50;99.90
10530;DHT22;5313;48.834;9.228;2023-05-09T13:57:05;22.20;99.90
10530;DHT22;5313;48.834;9.228;2023-05-09T13:59:32;22.30;99.90
10530;DHT22;5313;48.834;9.228;2023-05-09T14:01:58;22.30;99.90
10530;DHT22;5313;48.834;9.228;2023-05-09T14:04:28;22.40;99.90
10530;DHT22;5313;48.834;9.228;2023-05-09T14:06:54;22.60;99.90
10530;DHT22;5313;48.834;9.228;2023-05-09T14:09:20;22.80;99.90
10530;DHT22;5313;48.834;9.228;2023-05-09T14:11:47;23.00;99.90
10530;DHT22;5313;48.834;9.228;2023-05-09T14:14:16;23.10;99.90
10530;DHT22;5313;48.834;9.228;2023-05-09T14:16:42;23.10;99.90
10530;DHT22;5313;48.834;9.228;2023-05-09T14:19:07;23.00;99.90
10530;DHT22;5313;48.834;9.228;2023-05-09T14:21:33;22.80;99.90
10530;DHT22;5313;48.834;9.228;2023-05-09T14:23:58;22.70;99.90
10530;DHT22;5313;48.834;9.228;2023-05-09T14:26:24;22.70;99.90
10530;DHT22;5313;48.834;9.228;2023-05-09T14:28:51;22.50;99.90
10530;DHT22;5313;48.834;9.228;2023-05-09T14:31:17;22.30;99.90
10530;DHT22;5313;48.834;9.228;2023-05-09T14:33:43;22.30;99.90
10530;DHT22;5313;48.834;9.228;2023-05-09T14:36:09;22.30;99.90
10530;DHT22;5313;48.834;9.228;2023-05-09T14:38:35;22.20;99.90
10530;DHT22;5313;48.834;9.228;2023-05-09T14:41:01;22.10;99.90
10530;DHT22;5313;48.834;9.228;2023-05-09T14:43:27;22.00;99.90
10530;DHT22;5313;48.834;9.228;2023-05-09T14:45:53;22.00;99.90
10530;DHT22;5313;48.834;9.228;2023-05-09T14:48:18;22.10;99.90
10530;DHT22;5313;48.834;9.228;2023-05-09T14:50:44;21.90;99.90
10530;DHT22;5313;48.834;9.228;2023-05-09T14:53:10;21.70;99.90
10530;DHT22;5313;48.834;9.228;2023-05-09T14:55:35;21.50;99.90
10530;DHT22;5313;48.834;9.228;2023-05-09T14:58:01;21.30;99.90
10530;DHT22;5313;48.834;9.228;2023-05-09T15:00:27;21.10;99.90
10530;DHT22;5313;48.834;9.228;2023-05-09T15:02:53;20.90;99.90
10530;DHT22;5313;48.834;9.228;2023-05-09T15:05:18;20.60;99.90
10530;DHT22;5313;48.834;9.228;2023-05-09T15:07:44;20.40;99.90
10530;DHT22;5313;48.834;9.228;2023-05-09T15:10:10;20.30;99.90
10530;DHT22;5313;48.834;9.228;2023-05-09T15:12:36;20.30;99.90
10530;DHT22;5313;48.834;9.228;2023-05-09T15:15:16;20.30;99.90
10530;DHT22;5313;48.834;9.228;2023-05-09T15:17:42;20.00;99.90
10530;DHT22;5313;48.834;9.228;2023-05-09T15:20:09;20.00;99.90
10530;DHT22;5313;48.834;9.228;2023-05-09T15:22:35;20.20;99.90
10530;DHT22;5313;48.834;9.228;2023-05-09T15:25:01;20.50;99.90
10530;DHT22;5313;48.834;9.228;2023-05-09T15:27:27;20.70;99.90
10530;DHT22;5313;48.834;9.228;2023-05-09T15:29:53;20.90;99.90
10530;DHT22;5313;48.834;9.228;2023-05-09T15:32:19;20.80;99.90
10530;DHT22;5313;48.834;9.228;2023-05-09T15:34:45;20.90;99.90
10530;DHT22;5313;48.834;9.228;2023-05-09T15:37:10;20.80;99.90
10530;DHT22;5313;48.834;9.228;2023-05-09T15:39:37;21.00;99.90
10530;DHT22;5313;48.834;9.228;2023-05-09T15:42:11;21.10;99.90
10530;DHT22;5313;48.834;9.228;2023-05-09T15:44:38;21.00;99.90
10530;DHT22;5313;48.834;9.228;2023-05-09T15:47:03;21.00;99.90
10530;DHT22;5313;48.834;9.228;2023-05-09T15:49:29;20.80;99.90
10530;DHT22;5313;48.834;9.228;2023-05-09T15:51:55;21.00;99.90
10530;DHT22;5313;48.834;9.228;2023-05-09T15:54:20;21.10;99.90
10530;DHT22;5313;48.834;9.228;2023-05-09T15:56:49;20.80;99.90
10530;DHT22;5313;48.834;9.228;2023-05-09T15:59:15;20.80;99.90
10530;DHT22;5313;48.834;9.228;2023-05-09T16:01:41;20.90;99.90